Time;durP1;ratioP1;P1;durP2;ratioP2;P2;SDS_P1;SDS_P2;PMS_P1;PMS_P2;Temp;Humidity;BMP_temperature;BMP_pressure;BME280_temperature;BME280_humidity;BME280_pressure;Samples;Min_cycle;Max_cycle;Signal;HPM_P1;HPM_P2
2023/12/10 00:01:00;;;;;;;28.90;3.45;;;;;;;8.80;100.00;99586.91;5052385;28;20102;-85
2023/12/10 00:03:26;;;;;;;47.67;4.55;;;;;;;8.78;100.00;99584.31;5015752;28;20494;-84
2023/12/10 00:05:51;;;;;;;40.80;4.30;;;;;;;8.78;100.00;99588.94;5027671;28;20039;-84
2023/12/10 00:08:19;;;;;;;34.60;3.67;;;;;;;8.68;100.00;99593.50;5032075;28;20033;-84
2023/12/10 00:10:45;;;;;;;38.38;4.45;;;;;;;8.65;100.00;99584.59;5040276;28;20092;-84
2023/12/10 00:13:11;;;;;;;38.55;4.15;;;;;;;8.61;100.00;99601.41;5035595;28;20036;-85
2023/12/10 00:15:38;;;;;;;33.58;3.88;;;;;;;8.64;100.00;99588.34;5033348;28;20037;-84
2023/12/10 00:18:05;;;;;;;29.75;3.85;;;;;;;8.71;100.00;99602.28;5049429;28;20027;-85
2023/12/10 00:20:30;;;;;;;31.60;4.38;;;;;;;8.75;100.00;99602.84;5029988;28;20024;-83
2023/12/10 00:22:56;;;;;;;35.80;4.15;;;;;;;8.83;100.00;99611.19;5017438;28;20033;-84
2023/12/10 00:25:21;;;;;;;33.20;3.60;;;;;;;8.86;100.00;99605.47;5023328;28;20080;-84
2023/12/10 00:27:48;;;;;;;49.42;4.72;;;;;;;8.76;100.00;99599.13;5002109;28;20215;-84
2023/12/10 00:30:14;;;;;;;25.13;3.58;;;;;;;8.91;100.00;99613.22;5039401;28;20133;-83
2023/12/10 00:32:39;;;;;;;41.00;4.15;;;;;;;8.90;100.00;99612.34;5038768;28;20127;-83
2023/12/10 00:35:06;;;;;;;39.40;5.68;;;;;;;8.96;100.00;99617.25;5056020;28;20037;-84
2023/12/10 00:37:34;;;;;;;34.33;4.32;;;;;;;8.89;100.00;99604.34;5004022;28;20033;-84
2023/12/10 00:40:00;;;;;;;32.10;3.65;;;;;;;8.82;100.00;99618.53;5020614;28;20521;-83
2023/12/10 00:42:25;;;;;;;33.33;3.95;;;;;;;8.98;100.00;99611.66;5017576;28;20037;-84
2023/12/10 00:44:51;;;;;;;35.95;4.45;;;;;;;8.98;100.00;99633.50;5022526;28;20040;-84
2023/12/10 00:47:16;;;;;;;31.48;3.30;;;;;;;8.96;100.00;99625.44;5027192;28;20029;-84
2023/12/10 00:49:42;;;;;;;32.05;4.18;;;;;;;9.11;100.00;99641.41;5056350;28;20036;-84
2023/12/10 00:52:07;;;;;;;43.60;5.05;;;;;;;9.01;100.00;99633.19;5054771;28;20473;-84
2023/12/10 00:54:33;;;;;;;28.48;2.53;;;;;;;8.99;100.00;99649.72;5026228;28;20138;-83
2023/12/10 00:56:59;;;;;;;28.65;3.67;;;;;;;9.06;100.00;99650.03;5053814;28;20028;-84
2023/12/10 00:59:25;;;;;;;32.60;3.80;;;;;;;9.10;100.00;99658.78;5040829;28;20090;-84
2023/12/10 01:01:50;;;;;;;21.85;2.92;;;;;;;9.06;100.00;99660.94;4998750;28;20028;-84
2023/12/10 01:04:15;;;;;;;20.52;2.95;;;;;;;8.92;100.00;99673.16;5046929;28;20398;-83
2023/12/10 01:06:41;;;;;;;31.00;2.80;;;;;;;8.75;100.00;99673.81;5022111;28;20201;-83
2023/12/10 01:09:07;;;;;;;30.90;3.60;;;;;;;8.76;100.00;99670.09;5058682;28;20016;-83
2023/12/10 01:11:32;;;;;;;31.50;3.50;;;;;;;8.75;100.00;99676.53;5057619;28;20514;-83
2023/12/10 01:13:58;;;;;;;28.75;4.00;;;;;;;8.93;100.00;99674.00;5021840;28;20033;-84
2023/12/10 01:16:23;;;;;;;37.40;3.35;;;;;;;8.93;100.00;99671.28;5036339;28;20029;-83
2023/12/10 01:18:48;;;;;;;19.70;2.40;;;;;;;8.85;100.00;99671.09;5016816;28;20558;-84
2023/12/10 01:21:14;;;;;;;27.30;4.00;;;;;;;8.91;100.00;99676.00;5027010;28;20222;-83
2023/12/10 01:23:39;;;;;;;34.30;3.33;;;;;;;8.87;100.00;99663.63;5020409;28;20028;-83
2023/12/10 01:26:07;;;;;;;41.35;4.40;;;;;;;8.78;100.00;99671.66;5056261;28;20041;-84
2023/12/10 01:28:33;;;;;;;32.35;4.05;;;;;;;8.78;100.00;99674.38;5024431;28;20033;-84
2023/12/10 01:31:00;;;;;;;31.98;4.47;;;;;;;8.72;100.00;99677.66;5038638;28;20029;-83
2023/12/10 01:33:25;;;;;;;23.92;3.10;;;;;;;8.68;100.00;99676.22;5037332;28;20363;-84
2023/12/10 01:35:50;;;;;;;41.10;4.85;;;;;;;8.71;100.00;99680.56;5036734;28;20032;-83
2023/12/10 01:38:16;;;;;;;35.15;3.35;;;;;;;8.63;100.00;99681.25;5018482;28;20508;-84
2023/12/10 01:40:41;;;;;;;29.83;2.72;;;;;;;8.65;100.00;99687.41;5036756;28;20033;-84
2023/12/10 01:43:09;;;;;;;30.90;4.18;;;;;;;8.65;100.00;99687.41;5036418;28;20034;-84
2023/12/10 01:45:35;;;;;;;34.63;3.85;;;;;;;8.88;100.00;99690.78;5039311;28;20039;-84
2023/12/10 01:48:06;;;;;;;22.90;4.20;;;;;;;8.88;100.00;99688.06;5034967;28;20029;-84
2023/12/10 01:50:34;;;;;;;35.50;4.97;;;;;;;8.81;100.00;99690.50;5051754;28;20494;-85
2023/12/10 01:53:00;;;;;;;29.67;3.00;;;;;;;8.87;100.00;99693.66;5049720;28;20024;-84
2023/12/10 01:55:26;;;;;;;22.77;3.10;;;;;;;8.86;100.00;99700.13;5023423;28;20045;-84
2023/12/10 01:57:52;;;;;;;27.23;3.35;;;;;;;8.82;100.00;99696.78;5035897;28;20036;-83
2023/12/10 02:00:21;;;;;;;28.98;2.80;;;;;;;8.78;100.00;99709.88;5021952;28;20368;-84
2023/12/10 02:02:47;;;;;;;29.60;3.28;;;;;;;8.73;100.00;99705.84;5036784;28;20028;-84
2023/12/10 02:05:13;;;;;;;26.90;3.22;;;;;;;8.71;100.00;99713.31;5057483;28;20021;-83
2023/12/10 02:07:42;;;;;;;21.67;3.97;;;;;;;8.72;100.00;99718.59;5056581;28;20380;-84
2023/12/10 02:10:07;;;;;;;22.60;3.58;;;;;;;8.63;100.00;99719.44;5056777;28;20111;-83
2023/12/10 02:12:35;;;;;;;30.02;3.28;;;;;;;8.60;100.00;99722.44;5038751;28;20111;-83
2023/12/10 02:15:21;;;;;;;21.95;2.25;;;;;;;8.70;100.00;99720.59;5049850;28;20083;-83
2023/12/10 02:17:49;;;;;;;22.98;2.30;;;;;;;8.58;100.00;99733.50;5027297;28;20116;-83
2023/12/10 02:20:16;;;;;;;22.88;2.55;;;;;;;8.58;100.00;99732.63;5049267;28;20025;-84
2023/12/10 02:23:04;;;;;;;31.38;2.65;;;;;;;8.56;100.00;99743.69;5020134;28;20033;-83
2023/12/10 02:25:37;;;;;;;24.30;3.08;;;;;;;8.50;100.00;99743.38;5048300;28;20025;-83
2023/12/10 02:28:03;;;;;;;;;;;;;;;8.51;100.00;99754.16;5054969;28;20060;-83
2023/12/10 02:30:30;;;;;;;17.15;2.58;;;;;;;8.28;100.00;99748.81;5051928;28;19923;-83
2023/12/10 02:32:56;;;;;;;25.00;2.90;;;;;;;8.31;100.00;99758.56;5044104;28;20387;-83
2023/12/10 02:35:22;;;;;;;36.10;2.83;;;;;;;8.25;100.00;99754.53;5018108;28;20043;-83
2023/12/10 02:37:48;;;;;;;23.20;3.63;;;;;;;8.24;100.00;99762.84;5021079;28;20589;-83
2023/12/10 02:40:13;;;;;;;29.67;3.95;;;;;;;8.25;100.00;99742.78;5040204;28;20028;-83
2023/12/10 02:42:39;;;;;;;23.23;2.75;;;;;;;8.24;100.00;99747.34;5038717;28;20064;-83
2023/12/10 02:45:04;;;;;;;24.30;2.13;;;;;;;8.25;100.00;99753.69;5032661;28;20075;-83
2023/12/10 02:47:30;;;;;;;29.25;2.95;;;;;;;8.11;100.00;99760.31;5041201;28;20033;-83
2023/12/10 02:49:55;;;;;;;25.58;3.05;;;;;;;8.14;100.00;99757.31;5018720;28;20054;-84
2023/12/10 02:52:23;;;;;;;27.45;2.60;;;;;;;8.23;100.00;99744.75;5044248;28;20513;-84
2023/12/10 02:54:48;;;;;;;32.78;3.38;;;;;;;8.24;100.00;99760.13;5037988;28;20033;-84
2023/12/10 02:57:13;;;;;;;25.70;2.53;;;;;;;8.14;100.00;99761.94;5023659;28;20037;-83
2023/12/10 02:59:39;;;;;;;27.83;2.00;;;;;;;8.21;100.00;99761.22;5060134;28;20187;-83
2023/12/10 03:02:04;;;;;;;23.50;2.70;;;;;;;8.30;100.00;99759.59;5036346;28;20033;-83
2023/12/10 03:04:32;;;;;;;32.05;2.83;;;;;;;8.28;100.00;99773.34;5037967;28;20037;-84
2023/12/10 03:06:57;;;;;;;30.42;4.07;;;;;;;8.15;100.00;99760.91;5035087;28;20407;-84
2023/12/10 03:09:22;;;;;;;21.40;2.70;;;;;;;8.19;100.00;99765.97;5034244;28;20513;-84
2023/12/10 03:11:48;;;;;;;28.75;2.95;;;;;;;8.22;100.00;99767.56;5010198;28;20483;-84
2023/12/10 03:14:13;;;;;;;26.50;3.13;;;;;;;8.14;100.00;99778.28;5041460;28;20036;-84
2023/12/10 03:16:39;;;;;;;23.63;3.22;;;;;;;8.11;100.00;99768.50;5029423;28;20029;-84
2023/12/10 03:19:04;;;;;;;23.80;2.83;;;;;;;8.25;100.00;99775.50;5046633;28;20039;-83
2023/12/10 03:21:29;;;;;;;20.23;2.40;;;;;;;8.21;100.00;99769.41;4998828;28;20036;-83
2023/12/10 03:23:55;;;;;;;27.92;3.35;;;;;;;8.18;100.00;99777.00;5036540;28;20044;-84
2023/12/10 03:26:20;;;;;;;23.10;2.58;;;;;;;8.07;100.00;99777.94;5037581;28;20109;-84
2023/12/10 03:28:46;;;;;;;26.08;3.47;;;;;;;8.16;100.00;99787.19;5035943;28;20051;-84
2023/12/10 03:31:11;;;;;;;16.35;3.20;;;;;;;8.20;100.00;99773.16;5012813;28;20033;-84
2023/12/10 03:33:36;;;;;;;24.17;2.92;;;;;;;8.23;100.00;99780.19;5039242;28;20036;-84
2023/12/10 03:36:02;;;;;;;24.85;2.60;;;;;;;8.23;100.00;99791.09;5036642;28;20031;-83
2023/12/10 03:38:30;;;;;;;25.55;2.30;;;;;;;8.26;100.00;99790.84;5018370;28;20025;-83
2023/12/10 03:40:55;;;;;;;24.83;2.88;;;;;;;8.35;100.00;99787.31;5042697;28;20029;-83
2023/12/10 03:43:20;;;;;;;33.30;3.45;;;;;;;8.33;100.00;99774.81;5039646;28;20048;-84
2023/12/10 03:45:46;;;;;;;26.20;3.47;;;;;;;8.29;100.00;99785.97;5023397;28;20032;-83
2023/12/10 03:48:11;;;;;;;36.22;3.15;;;;;;;8.31;100.00;99798.63;5033695;28;20037;-83
2023/12/10 03:50:37;;;;;;;22.15;2.38;;;;;;;8.40;100.00;99793.22;4998736;28;20565;-84
2023/12/10 03:53:02;;;;;;;21.08;3.10;;;;;;;8.58;100.00;99787.19;5054878;28;20119;-84
2023/12/10 03:55:27;;;;;;;27.33;3.63;;;;;;;8.58;100.00;99793.50;5037014;28;20033;-83
2023/12/10 03:57:53;;;;;;;20.50;2.83;;;;;;;8.57;100.00;99789.03;5033761;28;20043;-83
2023/12/10 04:00:19;;;;;;;23.40;2.53;;;;;;;8.60;100.00;99807.03;5021486;28;20031;-83
2023/12/10 04:02:44;;;;;;;22.77;2.47;;;;;;;8.73;100.00;99784.97;5041839;28;20040;-83
2023/12/10 04:05:11;;;;;;;25.55;2.67;;;;;;;8.63;100.00;99790.38;5025788;28;20021;-86
2023/12/10 04:07:38;;;;;;;23.35;3.00;;;;;;;8.71;100.00;99814.28;5064176;28;20035;-84
2023/12/10 04:10:04;;;;;;;18.20;1.98;;;;;;;8.83;100.00;99799.53;5057332;28;20025;-83
2023/12/10 04:12:30;;;;;;;26.13;2.97;;;;;;;8.65;100.00;99807.47;5025888;28;20033;-83
2023/12/10 04:14:56;;;;;;;18.65;3.47;;;;;;;8.61;100.00;99826.00;5053616;28;21732;-84
2023/12/10 04:17:21;;;;;;;16.45;3.30;;;;;;;8.74;100.00;99805.78;5039631;28;20033;-84
2023/12/10 04:19:47;;;;;;;27.35;3.13;;;;;;;8.76;100.00;99814.72;5004912;28;20025;-83
2023/12/10 04:22:13;;;;;;;33.67;3.45;;;;;;;8.74;100.00;99813.97;5023299;28;20442;-84
2023/12/10 04:24:40;;;;;;;19.52;1.98;;;;;;;8.81;100.00;99813.31;5036232;28;20025;-84
2023/12/10 04:27:06;;;;;;;18.27;2.70;;;;;;;8.75;100.00;99813.84;5010566;28;20032;-84
2023/12/10 04:29:31;;;;;;;24.92;2.55;;;;;;;8.80;100.00;99816.16;5010846;28;20053;-83
2023/12/10 04:31:56;;;;;;;22.70;3.35;;;;;;;8.80;100.00;99821.63;5016381;28;20030;-83
2023/12/10 04:34:22;;;;;;;21.83;3.03;;;;;;;8.75;100.00;99822.03;4999569;28;20038;-83
2023/12/10 04:36:47;;;;;;;17.23;2.50;;;;;;;8.76;100.00;99833.84;5023948;28;20037;-83
2023/12/10 04:39:15;;;;;;;19.15;2.10;;;;;;;8.78;100.00;99840.88;5027400;28;20041;-83
2023/12/10 04:41:42;;;;;;;18.52;2.20;;;;;;;8.75;100.00;99829.38;5012832;28;20564;-84
2023/12/10 04:44:08;;;;;;;15.00;2.30;;;;;;;8.73;100.00;99831.38;5032137;28;20747;-84
2023/12/10 04:46:34;;;;;;;22.15;3.00;;;;;;;8.80;100.00;99854.38;5002745;28;20116;-83
2023/12/10 04:48:59;;;;;;;29.73;3.42;;;;;;;8.88;100.00;99860.03;5013991;28;20446;-84
2023/12/10 04:51:26;;;;;;;23.25;2.80;;;;;;;8.86;100.00;99850.25;5010724;28;20120;-83
2023/12/10 04:53:52;;;;;;;26.38;3.00;;;;;;;8.91;100.00;99848.00;5009539;28;20036;-83
2023/12/10 04:56:17;;;;;;;29.80;3.13;;;;;;;8.86;100.00;99872.09;4984970;28;20618;-83
2023/12/10 04:58:43;;;;;;;19.95;2.65;;;;;;;8.93;100.00;99854.16;4981738;28;20029;-85
2023/12/10 05:01:08;;;;;;;24.15;2.55;;;;;;;8.95;100.00;99866.69;5039087;28;20504;-83
2023/12/10 05:03:34;;;;;;;16.25;1.92;;;;;;;8.92;100.00;99866.06;5037027;28;20030;-83
2023/12/10 05:05:59;;;;;;;25.52;2.13;;;;;;;8.96;100.00;99862.94;5024793;28;20048;-82
2023/12/10 05:08:25;;;;;;;24.63;2.60;;;;;;;9.00;100.00;99869.88;5040931;28;20033;-83
2023/12/10 05:10:50;;;;;;;23.42;2.38;;;;;;;9.09;100.00;99880.97;5008387;28;20552;-83
2023/12/10 05:13:16;;;;;;;19.13;2.40;;;;;;;8.96;100.00;99897.59;5001724;28;20495;-83
2023/12/10 05:15:41;;;;;;;24.83;2.00;;;;;;;8.95;100.00;99884.91;5001157;28;20044;-82
2023/12/10 05:18:06;;;;;;;18.42;2.45;;;;;;;8.97;100.00;99910.25;5010342;28;20491;-83
2023/12/10 05:20:32;;;;;;;31.33;3.28;;;;;;;8.99;100.00;99902.78;5001487;28;20487;-83
2023/12/10 05:23:01;;;;;;;31.25;2.55;;;;;;;8.94;100.00;99894.97;4982180;28;20059;-83
2023/12/10 05:25:27;;;;;;;23.85;2.72;;;;;;;8.98;100.00;99918.28;5021837;28;20036;-82
2023/12/10 05:27:54;;;;;;;14.18;2.40;;;;;;;8.95;100.00;99921.28;5012529;28;20041;-83
2023/12/10 05:30:19;;;;;;;28.38;3.13;;;;;;;8.91;100.00;99933.47;5053793;28;20041;-85
2023/12/10 05:32:44;;;;;;;19.75;2.53;;;;;;;8.95;100.00;99932.22;5050017;28;20102;-85
2023/12/10 05:35:10;;;;;;;22.40;2.78;;;;;;;8.87;100.00;99912.03;5021104;28;20028;-84
2023/12/10 05:37:35;;;;;;;24.70;2.90;;;;;;;8.90;100.00;99933.59;5038741;28;20388;-85
2023/12/10 05:40:01;;;;;;;28.20;3.03;;;;;;;8.96;100.00;99930.34;5022897;28;20032;-86
2023/12/10 05:42:27;;;;;;;21.15;2.58;;;;;;;9.06;100.00;99935.88;5018060;28;20033;-86
2023/12/10 05:44:54;;;;;;;18.45;3.17;;;;;;;9.05;100.00;99945.03;5005022;28;20028;-85
2023/12/10 05:47:20;;;;;;;25.90;2.83;;;;;;;8.98;100.00;99958.38;5031317;28;20048;-85
2023/12/10 05:49:45;;;;;;;18.33;2.10;;;;;;;9.01;100.00;99955.38;5044880;28;20127;-86
2023/12/10 05:52:10;;;;;;;19.27;2.67;;;;;;;8.94;100.00;99952.31;5019141;28;20038;-86
2023/12/10 05:54:36;;;;;;;21.20;2.08;;;;;;;8.95;100.00;99964.97;5019087;28;20088;-87
2023/12/10 05:57:01;;;;;;;18.73;4.50;;;;;;;8.96;100.00;99966.69;5039397;28;20025;-86
2023/12/10 05:59:27;;;;;;;18.60;2.63;;;;;;;8.99;100.00;99984.69;5040065;28;20107;-86
2023/12/10 06:01:53;;;;;;;29.75;2.63;;;;;;;8.97;100.00;99973.03;5029905;28;20036;-85
2023/12/10 06:04:18;;;;;;;24.42;2.88;;;;;;;8.96;100.00;99987.69;5035756;28;20036;-86
2023/12/10 06:06:43;;;;;;;19.55;2.53;;;;;;;8.93;100.00;99994.25;5017189;28;20375;-86
2023/12/10 06:09:09;;;;;;;35.65;3.17;;;;;;;8.95;100.00;99989.56;5020174;28;20037;-85
2023/12/10 06:11:34;;;;;;;26.63;2.63;;;;;;;8.98;100.00;100015.69;5034206;28;20020;-85
2023/12/10 06:14:00;;;;;;;23.83;2.08;;;;;;;9.08;100.00;99989.31;5017904;28;20040;-86
2023/12/10 06:16:26;;;;;;;18.60;2.25;;;;;;;9.08;100.00;99991.19;5041603;28;20047;-87
2023/12/10 06:18:52;;;;;;;31.85;2.45;;;;;;;9.04;100.00;100000.66;4993231;28;20076;-86
2023/12/10 06:21:17;;;;;;;25.25;2.78;;;;;;;8.94;100.00;99986.94;5042207;28;20037;-86
2023/12/10 06:23:43;;;;;;;28.10;2.20;;;;;;;8.92;100.00;100011.66;5016713;28;20116;-86
2023/12/10 06:26:09;;;;;;;22.67;2.90;;;;;;;8.92;100.00;100019.84;5034507;28;20028;-85
2023/12/10 06:28:35;;;;;;;24.95;2.92;;;;;;;8.80;100.00;100024.47;5017423;28;20049;-87
2023/12/10 06:31:02;;;;;;;16.15;2.35;;;;;;;8.90;100.00;100020.97;5016045;28;20084;-85
2023/12/10 06:33:27;;;;;;;32.97;2.63;;;;;;;8.88;100.00;100040.19;4991551;28;20033;-86
2023/12/10 06:35:53;;;;;;;15.55;2.17;;;;;;;8.88;100.00;100037.47;5001133;28;20041;-86
2023/12/10 06:38:18;;;;;;;22.60;2.42;;;;;;;8.94;100.00;100047.00;5005018;28;20036;-86
2023/12/10 06:40:44;;;;;;;20.23;3.08;;;;;;;8.92;100.00;100062.63;5011946;28;20028;-86
2023/12/10 06:43:09;;;;;;;34.50;3.40;;;;;;;8.93;100.00;100048.84;4997402;28;20032;-86
2023/12/10 06:45:35;;;;;;;27.30;2.40;;;;;;;8.91;100.00;100067.22;5017788;28;20457;-86
2023/12/10 06:48:00;;;;;;;27.15;2.28;;;;;;;8.91;100.00;100066.38;4984149;28;20132;-87
2023/12/10 06:50:27;;;;;;;27.83;3.45;;;;;;;8.96;100.00;100066.84;5011685;28;20039;-86
2023/12/10 06:52:52;;;;;;;31.55;3.03;;;;;;;9.00;100.00;100065.56;4989255;28;20045;-85
2023/12/10 06:55:18;;;;;;;23.40;3.33;;;;;;;8.97;100.00;100084.97;5013770;28;20033;-85
2023/12/10 06:57:44;;;;;;;30.73;2.95;;;;;;;9.00;100.00;100090.16;5005623;28;20033;-86
2023/12/10 07:00:10;;;;;;;19.50;2.33;;;;;;;8.99;100.00;100105.66;5012232;28;20099;-85
2023/12/10 07:02:36;;;;;;;19.40;3.03;;;;;;;8.93;100.00;100110.78;5031760;28;20037;-86
2023/12/10 07:05:02;;;;;;;23.88;2.17;;;;;;;9.01;100.00;100106.41;5033256;28;20056;-86
2023/12/10 07:07:28;;;;;;;20.20;3.03;;;;;;;8.94;100.00;100124.31;5018496;28;20132;-87
2023/12/10 07:09:54;;;;;;;27.55;2.92;;;;;;;8.90;100.00;100131.00;5015166;28;20116;-87
2023/12/10 07:12:19;;;;;;;32.50;3.47;;;;;;;9.00;100.00;100132.00;5013204;28;20033;-86
2023/12/10 07:14:45;;;;;;;26.30;2.88;;;;;;;8.83;100.00;100146.19;5019599;28;20110;-87
2023/12/10 07:17:11;;;;;;;26.80;2.90;;;;;;;8.87;100.00;100144.06;5021979;28;20483;-88
2023/12/10 07:19:37;;;;;;;23.30;2.63;;;;;;;8.82;100.00;100166.28;5010948;28;20038;-87
2023/12/10 07:22:03;;;;;;;22.17;2.50;;;;;;;8.88;100.00;100167.63;4998364;28;20091;-86
2023/12/10 07:24:32;;;;;;;25.67;2.75;;;;;;;8.84;100.00;100164.31;4984437;28;20041;-86
2023/12/10 07:26:57;;;;;;;24.83;3.00;;;;;;;8.93;100.00;100163.50;4991200;28;20420;-84
2023/12/10 07:29:23;;;;;;;26.05;2.75;;;;;;;8.94;100.00;100169.88;5033397;28;20053;-88
2023/12/10 07:31:50;;;;;;;25.48;3.25;;;;;;;8.95;100.00;100166.13;5014996;28;20120;-86
2023/12/10 07:34:15;;;;;;;16.75;2.30;;;;;;;8.91;100.00;100173.72;5029335;28;20022;-87
2023/12/10 07:36:41;;;;;;;26.15;2.88;;;;;;;8.90;100.00;100179.28;4990187;28;20037;-86
2023/12/10 07:39:07;;;;;;;28.70;2.40;;;;;;;8.91;100.00;100170.97;4996046;28;20483;-86
2023/12/10 07:41:33;;;;;;;23.48;3.70;;;;;;;8.90;100.00;100193.81;4999153;28;20033;-87
2023/12/10 07:43:58;;;;;;;22.60;2.42;;;;;;;8.97;100.00;100203.22;4991037;28;20030;-86
2023/12/10 07:46:24;;;;;;;23.92;2.67;;;;;;;9.04;100.00;100205.47;4994828;28;20407;-85
2023/12/10 07:48:50;;;;;;;28.27;3.13;;;;;;;9.00;100.00;100208.44;5013850;28;20475;-86
2023/12/10 07:51:15;;;;;;;17.30;2.60;;;;;;;8.92;100.00;100220.97;5013510;28;20037;-85
2023/12/10 07:53:42;;;;;;;20.13;2.50;;;;;;;8.95;100.00;100221.63;4998128;28;20025;-85
2023/12/10 07:56:09;;;;;;;29.65;2.92;;;;;;;8.94;100.00;100232.66;5010358;28;20037;-86
2023/12/10 07:58:34;;;;;;;18.20;3.05;;;;;;;8.81;100.00;100249.16;5014898;28;20017;-88
2023/12/10 08:01:00;;;;;;;21.15;2.15;;;;;;;8.77;100.00;100239.47;4996327;28;20430;-86
2023/12/10 08:03:26;;;;;;;31.25;3.05;;;;;;;8.87;100.00;100245.94;5028801;28;20039;-84
2023/12/10 08:05:51;;;;;;;43.00;4.10;;;;;;;8.89;100.00;100254.00;4975861;28;20096;-85
2023/12/10 08:08:16;;;;;;;22.75;2.17;;;;;;;8.79;100.00;100243.84;4995161;28;20581;-85
2023/12/10 08:10:42;;;;;;;35.92;3.22;;;;;;;8.76;100.00;100256.88;4995487;28;20067;-85
2023/12/10 08:13:08;;;;;;;27.23;2.60;;;;;;;8.80;100.00;100248.28;4991128;28;20036;-85
2023/12/10 08:15:33;;;;;;;26.08;2.75;;;;;;;8.75;100.00;100253.25;5012345;28;20463;-85
2023/12/10 08:17:59;;;;;;;24.63;1.98;;;;;;;8.81;100.00;100257.38;4981584;28;20029;-84
2023/12/10 08:20:24;;;;;;;30.38;2.85;;;;;;;8.75;100.00;100260.59;4992788;28;20440;-85
2023/12/10 08:22:50;;;;;;;34.40;3.28;;;;;;;8.71;100.00;100264.56;5015539;28;20033;-85
2023/12/10 08:25:15;;;;;;;27.05;2.78;;;;;;;8.74;100.00;100267.03;5012318;28;20025;-84
2023/12/10 08:27:41;;;;;;;21.10;2.53;;;;;;;8.77;100.00;100286.78;5009192;28;22294;-86
2023/12/10 08:30:07;;;;;;;34.55;4.55;;;;;;;8.80;100.00;100288.38;5011499;28;20050;-84
2023/12/10 08:32:33;;;;;;;25.33;2.92;;;;;;;8.79;100.00;100281.19;4992766;28;20037;-84
2023/12/10 08:34:58;;;;;;;33.70;3.58;;;;;;;8.86;100.00;100295.22;5009432;28;20036;-83
2023/12/10 08:37:24;;;;;;;30.45;3.55;;;;;;;8.83;100.00;100299.03;5002404;28;20117;-84
2023/12/10 08:39:49;;;;;;;17.48;2.70;;;;;;;8.81;100.00;100290.13;5008726;28;20132;-84
2023/12/10 08:42:15;;;;;;;27.08;2.75;;;;;;;8.86;100.00;100306.13;5007847;28;20036;-84
2023/12/10 08:44:40;;;;;;;29.90;3.28;;;;;;;8.81;100.00;100296.44;5010208;28;20035;-84
2023/12/10 08:47:06;;;;;;;22.65;2.90;;;;;;;8.75;100.00;100306.97;4991959;28;20496;-85
2023/12/10 08:49:31;;;;;;;24.88;3.30;;;;;;;8.74;100.00;100305.22;5015593;28;20033;-85
2023/12/10 08:51:57;;;;;;;21.05;2.47;;;;;;;8.80;100.00;100310.22;4994088;28;20060;-85
2023/12/10 08:54:22;;;;;;;38.47;3.28;;;;;;;8.84;100.00;100319.91;4995677;28;20113;-84
2023/12/10 08:56:48;;;;;;;28.02;2.95;;;;;;;8.78;100.00;100318.50;5011321;28;20033;-86
2023/12/10 08:59:13;;;;;;;31.80;2.72;;;;;;;8.81;100.00;100312.81;4998616;28;20550;-87
2023/12/10 09:01:39;;;;;;;32.00;3.03;;;;;;;8.87;100.00;100324.22;4998218;28;20037;-87
2023/12/10 09:04:05;;;;;;;22.20;2.45;;;;;;;8.94;100.00;100329.06;4999242;28;20475;-87
2023/12/10 09:06:31;;;;;;;26.17;2.63;;;;;;;8.93;100.00;100331.94;5004470;28;21774;-87
2023/12/10 09:08:58;;;;;;;31.75;3.92;;;;;;;8.94;100.00;100334.53;5023603;28;20095;-88
2023/12/10 09:11:25;;;;;;;26.05;3.15;;;;;;;8.95;100.00;100360.88;5019882;28;20033;-87
2023/12/10 09:13:50;;;;;;;27.98;3.00;;;;;;;8.90;100.00;100335.75;5007157;28;20033;-86
2023/12/10 09:16:18;;;;;;;26.23;3.50;;;;;;;8.98;100.00;100349.66;4996107;28;20033;-89
2023/12/10 09:18:43;;;;;;;35.22;3.72;;;;;;;8.91;100.00;100345.69;5031235;28;20034;-89
2023/12/10 09:21:09;;;;;;;29.20;3.25;;;;;;;8.91;100.00;100361.22;4991667;28;20034;-89
2023/12/10 09:23:34;;;;;;;25.35;3.00;;;;;;;8.81;100.00;100359.22;4998311;28;20497;-88
2023/12/10 09:26:00;;;;;;;34.17;3.63;;;;;;;8.90;100.00;100362.22;5009718;28;20053;-87
2023/12/10 09:28:26;;;;;;;29.25;3.13;;;;;;;8.82;100.00;100362.81;5016376;28;20116;-86
2023/12/10 09:30:51;;;;;;;35.75;4.70;;;;;;;8.74;100.00;100370.75;5046603;28;20040;-88
2023/12/10 09:33:17;;;;;;;22.10;2.97;;;;;;;8.71;100.00;100374.59;4998962;28;20067;-87
2023/12/10 09:35:42;;;;;;;37.92;2.90;;;;;;;8.74;100.00;100376.19;5017764;28;20482;-87
2023/12/10 09:38:08;;;;;;;22.05;2.60;;;;;;;8.74;100.00;100371.63;5029720;28;20039;-88
2023/12/10 09:40:34;;;;;;;30.33;2.75;;;;;;;8.77;100.00;100363.19;5012342;28;20091;-89
2023/12/10 09:43:01;;;;;;;22.23;2.55;;;;;;;8.75;100.00;100362.44;5034454;28;20035;-89
2023/12/10 09:45:27;;;;;;;27.33;3.38;;;;;;;8.78;100.00;100355.88;5008008;28;20041;-91
2023/12/10 09:48:01;;;;;;;33.63;4.75;;;;;;;8.80;100.00;100362.06;5006198;28;20035;-91
2023/12/10 09:50:27;;;;;;;29.85;2.92;;;;;;;8.83;100.00;100359.09;5027399;28;20107;-94
2023/12/10 09:52:54;;;;;;;27.45;2.60;;;;;;;8.82;100.00;100362.81;5037647;28;20025;-93
2023/12/10 09:55:20;;;;;;;26.60;2.83;;;;;;;8.79;100.00;100363.09;5040943;28;20094;-91
2023/12/10 09:57:45;;;;;;;36.40;3.67;;;;;;;8.86;100.00;100363.47;5032982;28;20032;-90
2023/12/10 10:00:12;;;;;;;22.15;2.80;;;;;;;8.85;100.00;100359.84;5058064;28;20028;-94
2023/12/10 10:02:39;;;;;;;24.38;2.72;;;;;;;8.87;100.00;100371.53;5018802;28;20022;-90
2023/12/10 10:05:09;;;;;;;29.75;3.80;;;;;;;8.91;100.00;100370.28;4997332;28;20443;-87
2023/12/10 10:07:35;;;;;;;27.10;3.78;;;;;;;8.98;100.00;100376.09;5037873;28;20052;-88
2023/12/10 10:10:01;;;;;;;40.55;3.65;;;;;;;9.02;100.00;100381.22;5053613;28;20044;-89
2023/12/10 10:12:30;;;;;;;36.22;3.88;;;;;;;9.03;100.00;100371.16;5008394;28;20506;-90
2023/12/10 10:14:57;;;;;;;29.88;3.03;;;;;;;9.10;100.00;100387.91;5038418;28;20402;-89
2023/12/10 10:17:33;;;;;;;33.00;4.93;;;;;;;9.11;100.00;100373.25;5054838;28;20039;-89
2023/12/10 10:19:59;;;;;;;21.88;2.58;;;;;;;9.17;100.00;100384.56;5045310;28;20021;-88
2023/12/10 10:22:26;;;;;;;20.85;2.55;;;;;;;9.17;100.00;100378.25;5010954;28;20110;-87
2023/12/10 10:24:54;;;;;;;22.52;2.67;;;;;;;9.22;100.00;100383.34;5008243;28;20029;-88
2023/12/10 10:27:20;;;;;;;31.90;3.42;;;;;;;9.12;100.00;100370.41;5022866;28;20036;-87
2023/12/10 10:29:48;;;;;;;36.60;4.03;;;;;;;9.13;100.00;100365.81;5054347;28;20032;-87
2023/12/10 10:32:18;;;;;;;29.00;2.92;;;;;;;9.18;100.00;100363.56;5024505;28;20116;-85
2023/12/10 10:34:46;;;;;;;25.40;3.10;;;;;;;9.37;100.00;100362.94;5017342;28;20048;-85
2023/12/10 10:37:13;;;;;;;32.78;3.63;;;;;;;9.38;100.00;100353.75;5055298;28;20028;-90
2023/12/10 10:39:38;;;;;;;33.58;3.38;;;;;;;9.36;100.00;100345.69;5013299;28;20029;-89
2023/12/10 10:42:08;;;;;;;27.65;3.55;;;;;;;9.42;100.00;100346.19;5030966;28;20027;-89
2023/12/10 10:44:35;;;;;;;22.67;3.60;;;;;;;9.61;100.00;100364.63;5052318;28;20032;-91
2023/12/10 10:47:04;;;;;;;29.02;3.10;;;;;;;9.68;100.00;100363.16;5054247;28;20544;-89
2023/12/10 10:49:31;;;;;;;24.48;2.83;;;;;;;9.74;100.00;100368.09;5040781;28;20058;-90
2023/12/10 10:51:58;;;;;;;28.15;2.28;;;;;;;9.96;100.00;100363.56;5033787;28;20047;-91
2023/12/10 10:54:24;;;;;;;23.63;3.45;;;;;;;10.02;100.00;100366.63;5008920;28;20065;-92
2023/12/10 10:56:52;;;;;;;40.90;4.22;;;;;;;10.20;100.00;100361.47;5021664;28;20037;-91
2023/12/10 10:59:31;;;;;;;27.27;3.20;;;;;;;10.32;100.00;100359.56;5032553;28;20041;-91
2023/12/10 11:02:06;;;;;;;16.52;2.45;;;;;;;10.46;100.00;100347.41;5043404;28;20024;-90
2023/12/10 11:04:34;;;;;;;20.90;2.42;;;;;;;10.32;100.00;100353.22;5038720;28;20049;-89
2023/12/10 11:07:00;;;;;;;29.63;3.25;;;;;;;10.28;100.00;100355.31;5044187;28;20089;-89
2023/12/10 11:09:28;;;;;;;28.55;2.63;;;;;;;10.20;100.00;100355.09;5026203;28;20120;-89
2023/12/10 11:11:53;;;;;;;23.52;3.00;;;;;;;10.12;100.00;100348.44;5053573;28;20029;-89
2023/12/10 11:14:23;;;;;;;29.77;2.88;;;;;;;10.23;100.00;100331.13;5015773;28;20450;-88
2023/12/10 11:17:01;;;;;;;21.58;2.58;;;;;;;10.34;100.00;100341.16;5035267;28;20116;-89